Terminal Aerodrome Forecast
Issued by NWS Wilmington, OH

Current Version | Previous Version | Text Only | Print | Product List | Glossary Off
Versions: 1 2 3 4 5 6 7 8 9 10 11 12 13 14 15 16 17 18 19 20 21 22

000
FTUS41 KILN 182339
TAFCVG
TAF
KCVG 182339Z 1900/2006 25007KT P6SM SKC
     FM191000 19003KT P6SM BKN120
     FM191500 23010KT P6SM VCSH SCT060 BKN120
     FM191800 27011KT P6SM SCT040
     FM192200 30006KT P6SM SKC=

USA.gov is the U.S. government's official web portal to all federal, state and local government web resources and services.